Akron, MI

4:26 AM EDT on July 24, 2014 (GMT -0400)
Caro (KCFS) Elev 702 ft | 43.46 °N, 83.45 °W | Change Station

Current weather conditions updated 11 minutes ago

Clear
Clear
56 °F
Feels Like 56 °F
N
4
Wind Variable Wind from North

Today is forecast to be Cooler than yesterday.

Today
High -- | Low -- °F
--% Chance of Precip.
Yesterday
High -- | Low -- °F
Precip. -- in
6:15 AM 9:05 PM
Waning Crescent, 6% visible
Pressure 30.10 in
Visibility 10.0 miles
Clouds Clear
Dew Point 54 °F
Humidity 95%
Rainfall 0.00 in
Snow Depth Not available.
UV 0 out of 12
Pollen 5.80 out of 12
Ozone Good
PM2.5 Good
Flu Activity Not available.
METAR KCFS 240815Z AUTO 36003KT 10SM CLR 13/13 A3010 RMK AO2 T01330125

More Conditions Fewer Conditions

Pressure 30.10 in
Visibility 10.0 miles
Clouds Clear
Dew Point 54 °F
Humidity 95%
Rainfall 0.00 in
Snow Depth Not available.
UV 0 out of 12
Pollen 5.80 out of 12
Ozone Good
PM2.5 Good
Flu Activity Not available.
METAR KCFS 240815Z AUTO 36003KT 10SM CLR 13/13 A3010 RMK AO2 T01330125

More Conditions Fewer Conditions

10-Day Weather Forecast

Almanac

Astronomy

Jul. 24, 2014 Rise Set
Actual Time 6:15 AM EDT 9:05 PM EDT
Civil Twilight 5:41 AM EDT 9:39 PM EDT
Nautical Twilight 4:58 AM EDT 10:21 PM EDT
Astronomical Twilight 4:09 AM EDT 11:10 PM EDT
Moon 4:22 AM EDT 7:18 PM EDT
Length of Visible Light 15h 57m
Length of Day
14h 50m
Tomorrow will be 2m 0s shorter.
Waning Crescent, 6% of the Moon is Illuminated
Today
Waning Crescent
Jul 26
New
Aug 3
First Quarter
Aug 10
Full
Aug 17
Last Quarter

Today's Extremes

State Highs State Lows

Community

WunderPhotos

Upload Photos

1,736,950 photos uploaded!

Nearby

Air Quality

  Air Quality AQ Index Pollutant
Yesterday Good
OZONE
Yesterday Good
PM2.5
Current Good
OZONE
Current Good
PM2.5
Thursday Good
OZONE
Thursday Good
PM2.5
Friday Good
OZONE
Friday Good
PM2.5
Saturday Good
OZONE
Saturday Good
PM2.5

Snow Depth

Station Depth Elevation
No new snow has been reported.

Earthquake Activity

City Distance Mag. Time & Date
No recent earthquake activity has been reported nearby.
Minimum magnitude displayed is 2.5.

Coastal Water Temperatures

Place Temperature
Harbor Beach, MI 63.0 °F

Nearby Weather Stations

Station Location Temp. Dew Point Humidity Wind Precip. Elev Updated Type
Killarney Beach, Bay City, MI 59.7 °F 54 °F 82% NNE  at  9.0 mph 0.00 in / hr 581 ft 4:25 AM EDT Normal
Delta College, University Center, MI 53.9 °F 50 °F 87% NNW  at  0.0 mph 0.00 in / hr 637 ft 4:24 AM EDT Rapid Fire
APRSWXNET Network Services Group, Saginaw, MI 57.6 °F 52 °F 82% NNE  at  0.0 mph 0.00 in / hr 637 ft 4:26 AM EDT Rapid Fire
Sand Point, Sand Point, MI 60.7 °F 55 °F 81% NNE  at  6.0 mph 0.00 in / hr 598 ft 4:25 AM EDT Normal
Monitor Township, Bay City, MI 53.3 °F 50 °F 89% ESE  at  0.0 mph 0.00 in / hr 617 ft 4:26 AM EDT Rapid Fire
Saginaw (Passolt/Davenport), Saginaw, MI 57.3 °F 49 °F 74% North  at  0.0 mph 0.00 in / hr 614 ft 4:26 AM EDT Normal

Show More Stations Show Fewer Stations